createdAt,value
2022-09-20T00:01:28.527Z,98557.40
2022-09-20T00:04:08.204Z,98561.20
2022-09-20T00:06:46.530Z,98558.60
2022-09-20T00:09:22.733Z,98558.60
2022-09-20T00:11:59.448Z,98561.20
2022-09-20T00:14:35.862Z,98567.60
2022-09-20T00:17:12.212Z,98565.00
2022-09-20T00:19:48.619Z,98564.20
2022-09-20T00:22:24.902Z,98561.80
2022-09-20T00:25:01.201Z,98572.00
2022-09-20T00:27:37.436Z,98573.80
2022-09-20T00:30:17.015Z,98575.60
2022-09-20T00:32:53.241Z,98575.40
2022-09-20T00:35:29.726Z,98571.20
2022-09-20T00:38:06.202Z,98573.20
2022-09-20T00:40:43.274Z,98574.80
2022-09-20T00:43:39.315Z,98575.00
2022-09-20T00:46:29.663Z,98572.40
2022-09-20T00:49:16.876Z,98569.00
2022-09-20T00:52:01.855Z,98567.20
2022-09-20T00:54:39.231Z,98573.00
2022-09-20T00:57:15.689Z,98575.40
2022-09-20T00:59:55.235Z,98575.60
2022-09-20T01:02:36.109Z,98571.60
2022-09-20T01:05:16.162Z,98574.00
2022-09-20T01:07:55.009Z,98574.80
2022-09-20T01:10:32.979Z,98570.60
2022-09-20T01:13:09.692Z,98574.00
2022-09-20T01:15:48.930Z,98575.00
2022-09-20T01:18:27.439Z,98573.20
2022-09-20T01:21:07.721Z,98575.40
2022-09-20T01:24:01.567Z,98574.80
2022-09-20T01:27:06.829Z,98572.80
2022-09-20T01:30:08.162Z,98576.20
2022-09-20T01:33:10.633Z,98572.80
2022-09-20T01:35:51.459Z,98575.80
2022-09-20T01:38:44.283Z,98572.80
2022-09-20T01:41:29.877Z,98571.40
2022-09-20T01:44:19.437Z,98571.60
2022-09-20T01:47:08.458Z,98570.00
2022-09-20T01:49:58.123Z,98573.80
2022-09-20T01:53:38.581Z,98573.80
2022-09-20T01:57:00.757Z,98576.40
2022-09-20T02:00:07.003Z,98571.60
2022-09-20T02:03:48.949Z,98576.40
2022-09-20T02:07:06.429Z,98574.80
2022-09-20T02:10:22.881Z,98578.40
2022-09-20T02:13:10.656Z,98581.40
2022-09-20T02:16:37.877Z,98581.80
2022-09-20T02:19:48.275Z,98584.00
2022-09-20T02:22:46.206Z,98587.20
2022-09-20T02:26:02.432Z,98588.60
2022-09-20T02:29:02.763Z,98589.40
2022-09-20T02:32:14.890Z,98590.20
2022-09-20T02:35:26.446Z,98594.80
2022-09-20T02:38:23.845Z,98593.40
2022-09-20T02:41:39.557Z,98597.20
2022-09-20T02:44:30.862Z,98598.20
2022-09-20T02:47:23.725Z,98602.20
2022-09-20T02:50:21.309Z,98602.60
2022-09-20T02:53:24.421Z,98610.00
2022-09-20T02:56:19.367Z,98609.40
2022-09-20T02:59:07.211Z,98609.20
2022-09-20T03:02:02.153Z,98610.60
2022-09-20T03:05:06.336Z,98610.40
2022-09-20T03:08:03.269Z,98610.00
2022-09-20T03:10:53.024Z,98613.40
2022-09-20T03:13:55.530Z,98616.80
2022-09-20T03:16:52.578Z,98621.20
2022-09-20T03:19:54.789Z,98620.40
2022-09-20T03:22:50.900Z,98619.00
2022-09-20T03:25:47.503Z,98613.40
2022-09-20T03:28:51.515Z,98612.00
2022-09-20T03:31:49.876Z,98616.80
2022-09-20T03:34:59.371Z,98619.40
2022-09-20T03:38:04.994Z,98615.20
2022-09-20T03:41:11.001Z,98618.80
2022-09-20T03:44:20.969Z,98620.20
2022-09-20T03:47:18.980Z,98617.00
2022-09-20T03:50:36.160Z,98616.80
2022-09-20T03:54:20.472Z,98620.40
2022-09-20T03:57:40.553Z,98627.20
2022-09-20T04:00:53.148Z,98631.80
2022-09-20T04:03:47.077Z,98636.60
2022-09-20T04:07:04.419Z,98632.80
2022-09-20T04:10:14.938Z,98640.80
2022-09-20T04:13:18.963Z,98641.60
2022-09-20T04:16:16.752Z,98647.60
2022-09-20T04:19:00.915Z,98650.20
2022-09-20T04:21:46.190Z,98650.80
2022-09-20T04:24:39.244Z,98652.20
2022-09-20T04:27:29.064Z,98655.60
2022-09-20T04:30:16.042Z,98650.80
2022-09-20T04:33:04.907Z,98656.60
2022-09-20T04:36:10.900Z,98656.40
2022-09-20T04:39:01.868Z,98659.40
2022-09-20T04:42:37.161Z,98654.20
2022-09-20T04:46:03.977Z,98657.80
2022-09-20T04:49:37.614Z,98664.40
2022-09-20T04:53:22.987Z,98670.00
2022-09-20T04:56:10.861Z,98667.60
2022-09-20T04:59:12.043Z,98672.40
2022-09-20T05:02:53.623Z,98673.00
2022-09-20T05:06:15.705Z,98677.20
2022-09-20T05:09:56.298Z,98680.80
2022-09-20T05:13:05.329Z,98686.00
2022-09-20T05:16:00.853Z,98690.20
2022-09-20T05:19:20.574Z,98689.20
2022-09-20T05:22:47.018Z,98690.20
2022-09-20T05:26:01.651Z,98693.20
2022-09-20T05:28:54.984Z,98692.20
2022-09-20T05:31:47.589Z,98692.00
2022-09-20T05:34:36.078Z,98692.80
2022-09-20T05:37:25.660Z,98695.00
2022-09-20T05:40:21.892Z,98698.60
2022-09-20T05:43:11.999Z,98698.20
2022-09-20T05:46:17.352Z,98701.20
2022-09-20T05:49:13.217Z,98698.60
2022-09-20T05:52:32.767Z,98703.00
2022-09-20T05:56:07.278Z,98700.80
2022-09-20T05:59:09.747Z,98704.60
2022-09-20T06:02:16.492Z,98704.00
2022-09-20T06:05:04.309Z,98706.00
2022-09-20T06:08:17.719Z,98706.80
2022-09-20T06:11:15.880Z,98712.60
2022-09-20T06:14:15.924Z,98717.40
2022-09-20T06:17:06.288Z,98716.60
2022-09-20T06:19:51.806Z,98719.40
2022-09-20T06:22:35.506Z,98725.40
2022-09-20T06:25:24.359Z,98723.80
2022-09-20T06:28:13.460Z,98729.40
2022-09-20T06:30:53.673Z,98730.60
2022-09-20T06:33:31.668Z,98732.80
2022-09-20T06:36:33.589Z,98738.00
2022-09-20T06:39:42.067Z,98738.60
2022-09-20T06:42:18.742Z,98745.40
2022-09-20T06:44:55.660Z,98749.60
2022-09-20T06:47:34.653Z,98751.80
2022-09-20T06:50:19.531Z,98754.00
2022-09-20T06:52:55.978Z,98750.00
2022-09-20T06:55:37.524Z,98753.60
2022-09-20T06:58:14.289Z,98754.80
2022-09-20T07:00:50.966Z,98757.00
2022-09-20T07:03:27.268Z,98757.60
2022-09-20T07:06:04.653Z,98759.60
2022-09-20T07:08:41.885Z,98760.20
2022-09-20T07:11:23.176Z,98761.60
2022-09-20T07:14:01.044Z,98767.00
2022-09-20T07:16:37.610Z,98771.80
2022-09-20T07:19:13.816Z,98777.60
2022-09-20T07:21:50.302Z,98776.60
2022-09-20T07:24:26.967Z,98786.40
2022-09-20T07:27:06.778Z,98790.00
2022-09-20T07:29:43.004Z,98786.80
2022-09-20T07:32:19.169Z,98792.00
2022-09-20T07:34:55.347Z,98794.60
2022-09-20T07:37:36.361Z,98794.20
2022-09-20T07:40:15.881Z,98790.00
2022-09-20T07:42:56.138Z,98797.40
2022-09-20T07:45:34.347Z,98801.80
2022-09-20T07:48:10.743Z,98800.80
2022-09-20T07:50:56.809Z,98802.20
2022-09-20T07:53:33.756Z,98800.00
2022-09-20T07:56:15.218Z,98805.80
2022-09-20T07:58:52.613Z,98807.40
2022-09-20T08:01:29.030Z,98811.00
2022-09-20T08:04:08.199Z,98813.40
2022-09-20T08:06:47.487Z,98815.40
2022-09-20T08:09:23.905Z,98815.80
2022-09-20T08:14:05.192Z,98816.80
2022-09-20T08:14:56.835Z,98814.00
2022-09-20T08:17:33.670Z,98823.40
2022-09-20T08:20:12.010Z,98819.40
2022-09-20T08:23:06.309Z,98821.60
2022-09-20T08:25:44.483Z,98824.20
2022-09-20T08:28:20.654Z,98820.80
2022-09-20T08:31:01.582Z,98825.00
2022-09-20T08:33:39.249Z,98830.80
2022-09-20T08:36:21.408Z,98826.20
2022-09-20T08:42:03.137Z,98829.60
2022-09-20T08:44:57.883Z,98831.80
2022-09-20T08:47:38.650Z,98833.20
2022-09-20T08:50:18.160Z,98836.00
2022-09-20T08:53:05.131Z,98836.40
2022-09-20T08:55:43.480Z,98836.40
2022-09-20T08:58:19.857Z,98839.80
2022-09-20T09:00:58.783Z,98837.80
2022-09-20T09:03:36.913Z,98833.60
2022-09-20T09:06:19.848Z,98840.00
2022-09-20T09:08:58.927Z,98833.80
2022-09-20T09:11:45.883Z,98838.60
2022-09-20T09:14:54.988Z,98835.80
2022-09-20T09:17:33.513Z,98835.00
2022-09-20T09:20:25.655Z,98827.00
2022-09-20T09:23:21.339Z,98826.80
2022-09-20T09:26:04.227Z,98831.40
2022-09-20T09:28:40.458Z,98826.40
2022-09-20T09:31:27.709Z,98825.60
2022-09-20T09:34:03.941Z,98825.60
2022-09-20T09:36:48.096Z,98824.20
2022-09-20T09:39:33.921Z,98822.40
2022-09-20T09:42:29.855Z,98818.60
2022-09-20T09:45:36.472Z,98817.80
2022-09-20T09:48:27.871Z,98823.60
2022-09-20T09:51:20.908Z,98815.20
2022-09-20T09:53:58.049Z,98809.60
2022-09-20T09:57:05.981Z,98810.40
2022-09-20T10:00:17.802Z,98810.80
2022-09-20T10:03:34.228Z,98810.00
2022-09-20T10:06:24.442Z,98814.80
2022-09-20T10:09:25.338Z,98821.00
2022-09-20T10:12:27.065Z,98823.80
2022-09-20T10:15:26.827Z,98820.60
2022-09-20T10:18:28.395Z,98820.00
2022-09-20T10:21:31.833Z,98821.40
2022-09-20T10:24:30.737Z,98823.00
2022-09-20T10:27:41.828Z,98825.20
2022-09-20T10:30:22.896Z,98821.00
2022-09-20T10:33:25.481Z,98830.20
2022-09-20T10:36:24.306Z,98828.20
2022-09-20T10:39:12.544Z,98822.20
2022-09-20T10:42:20.377Z,98818.80
2022-09-20T10:45:42.033Z,98812.20
2022-09-20T10:48:28.887Z,98822.60
2022-09-20T10:51:17.730Z,98826.80
2022-09-20T10:54:08.172Z,98832.20
2022-09-20T10:56:51.978Z,98834.40
2022-09-20T10:59:48.303Z,98831.60
2022-09-20T11:03:05.981Z,98834.00
2022-09-20T11:06:00.945Z,98831.20
2022-09-20T11:08:41.951Z,98829.80
2022-09-20T11:11:27.277Z,98828.60
2022-09-20T11:14:13.953Z,98822.00
2022-09-20T11:16:59.749Z,98823.20
2022-09-20T11:19:48.933Z,98817.80
2022-09-20T11:22:32.595Z,98817.80
2022-09-20T11:25:23.077Z,98813.60
2022-09-20T11:28:12.743Z,98818.60
2022-09-20T11:31:00.026Z,98813.40
2022-09-20T11:33:45.872Z,98817.80
2022-09-20T11:36:31.657Z,98818.80
2022-09-20T11:39:16.063Z,98822.40
2022-09-20T11:41:56.725Z,98823.60
2022-09-20T11:44:42.310Z,98828.80
2022-09-20T11:47:50.064Z,98830.80
2022-09-20T11:51:34.598Z,98833.80
2022-09-20T11:54:36.247Z,98833.00
2022-09-20T11:57:17.858Z,98829.60
2022-09-20T12:00:01.655Z,98825.60
2022-09-20T12:02:49.672Z,98829.20
2022-09-20T12:05:38.214Z,98828.00
2022-09-20T12:08:29.326Z,98832.00
2022-09-20T12:11:11.425Z,98828.60
2022-09-20T12:14:05.921Z,98827.00
2022-09-20T12:16:50.511Z,98823.20
2022-09-20T12:19:43.342Z,98830.80
2022-09-20T12:22:33.209Z,98825.40
2022-09-20T12:26:01.014Z,98830.60
2022-09-20T12:28:43.031Z,98833.80
2022-09-20T12:31:53.446Z,98833.00
2022-09-20T12:34:40.330Z,98828.20
2022-09-20T12:37:30.647Z,98829.20
2022-09-20T12:40:16.684Z,98827.00
2022-09-20T12:42:59.471Z,98824.00
2022-09-20T12:45:36.649Z,98821.60
2022-09-20T12:48:23.875Z,98819.80
2022-09-20T12:51:50.274Z,98813.80
2022-09-20T12:54:26.454Z,98816.00
2022-09-20T12:57:32.359Z,98823.60
2022-09-20T13:00:34.556Z,98828.80
2022-09-20T13:03:32.023Z,98837.60
2022-09-20T13:06:29.922Z,98854.20
2022-09-20T13:09:14.029Z,98854.00
2022-09-20T13:11:56.981Z,98870.20
2022-09-20T13:14:35.962Z,98857.80
2022-09-20T13:17:30.999Z,98854.60
2022-09-20T13:20:16.427Z,98857.80
2022-09-20T13:22:56.044Z,98861.60
2022-09-20T13:25:42.729Z,98861.60
2022-09-20T13:28:34.335Z,98859.60
2022-09-20T13:31:34.599Z,98852.20
2022-09-20T13:34:25.029Z,98855.00
2022-09-20T13:37:02.734Z,98853.00
2022-09-20T13:39:41.385Z,98856.60
2022-09-20T13:42:21.884Z,98857.40
2022-09-20T13:44:59.849Z,98855.00
2022-09-20T13:47:43.159Z,98850.40
2022-09-20T13:50:33.049Z,98850.60
2022-09-20T13:53:40.046Z,98850.60
2022-09-20T13:56:24.192Z,98845.40
2022-09-20T13:59:07.676Z,98845.00
2022-09-20T14:01:52.954Z,98841.20
2022-09-20T14:04:32.552Z,98841.20
2022-09-20T14:07:11.287Z,98842.40
2022-09-20T14:09:48.860Z,98843.80
2022-09-20T14:12:26.981Z,98844.40
2022-09-20T14:15:09.926Z,98838.20
2022-09-20T14:17:46.330Z,98840.60
2022-09-20T14:20:24.267Z,98841.20
2022-09-20T14:23:01.116Z,98846.40
2022-09-20T14:25:37.506Z,98846.00
2022-09-20T14:28:29.002Z,98840.20
2022-09-20T14:31:17.781Z,98840.40
2022-09-20T14:33:59.000Z,98849.60
2022-09-20T14:36:35.778Z,98850.60
2022-09-20T14:39:20.270Z,98851.20
2022-09-20T14:41:56.833Z,98852.00
2022-09-20T14:44:38.004Z,98851.00
2022-09-20T14:47:29.377Z,98853.80
2022-09-20T14:50:23.308Z,98855.00
2022-09-20T14:53:31.933Z,98858.00
2022-09-20T14:56:18.308Z,98860.60
2022-09-20T14:59:30.483Z,98861.00
2022-09-20T15:02:17.210Z,98862.60
2022-09-20T15:05:01.882Z,98866.40
2022-09-20T15:07:41.120Z,98872.00
2022-09-20T15:10:20.622Z,98874.60
2022-09-20T15:12:57.069Z,98874.20
2022-09-20T15:15:33.635Z,98874.40
2022-09-20T15:18:22.798Z,98877.20
2022-09-20T15:20:59.647Z,98876.80
2022-09-20T15:23:36.762Z,98877.60
2022-09-20T15:26:15.952Z,98877.20
2022-09-20T15:28:53.004Z,98875.80
2022-09-20T15:31:29.471Z,98882.80
2022-09-20T15:34:08.409Z,98884.20
2022-09-20T15:36:46.250Z,98888.20
2022-09-20T15:39:24.701Z,98889.40
2022-09-20T15:42:02.611Z,98896.00
2022-09-20T15:44:38.937Z,98897.60
2022-09-20T15:47:16.126Z,98901.00
2022-09-20T15:49:53.509Z,98903.60
2022-09-20T15:52:34.445Z,98903.80
2022-09-20T15:55:12.458Z,98903.60
2022-09-20T15:57:49.878Z,98898.40
2022-09-20T16:00:26.138Z,98902.40
2022-09-20T16:03:02.311Z,98902.20
2022-09-20T16:05:38.820Z,98899.60
2022-09-20T16:08:15.260Z,98901.00
2022-09-20T16:11:01.731Z,98904.00
2022-09-20T16:13:42.158Z,98907.00
2022-09-20T16:16:18.828Z,98907.80
2022-09-20T16:19:13.241Z,98911.40
2022-09-20T16:21:57.869Z,98914.60
2022-09-20T16:24:37.876Z,98918.00
2022-09-20T16:27:18.902Z,98919.40
2022-09-20T16:29:55.758Z,98919.80
2022-09-20T16:32:32.040Z,98919.20
2022-09-20T16:35:09.938Z,98924.80
2022-09-20T16:37:48.343Z,98924.40
2022-09-20T16:40:25.076Z,98930.60
2022-09-20T16:43:01.925Z,98935.80
2022-09-20T16:45:38.225Z,98945.00
2022-09-20T16:48:14.555Z,98945.00
2022-09-20T16:50:58.690Z,98951.80
2022-09-20T16:53:35.355Z,98952.60
2022-09-20T16:56:21.646Z,98952.20
2022-09-20T16:58:58.612Z,98957.20
2022-09-20T17:01:36.917Z,98967.40
2022-09-20T17:04:15.127Z,98965.60
2022-09-20T17:06:52.709Z,98976.00
2022-09-20T17:09:29.541Z,98986.20
2022-09-20T17:12:09.314Z,98984.00
2022-09-20T17:14:45.927Z,98985.80
2022-09-20T17:17:22.963Z,98991.60
2022-09-20T17:19:59.231Z,98992.20
2022-09-20T17:22:35.924Z,98998.00
2022-09-20T17:25:14.267Z,99003.80
2022-09-20T17:27:50.731Z,99002.00
2022-09-20T17:30:27.534Z,99005.00
2022-09-20T17:33:07.724Z,99004.80
2022-09-20T17:35:53.539Z,99007.20
2022-09-20T17:38:31.102Z,99011.60
2022-09-20T17:41:14.074Z,99015.20
2022-09-20T17:43:56.141Z,99017.00
2022-09-20T17:46:33.755Z,99020.80
2022-09-20T17:49:13.704Z,99025.00
2022-09-20T17:51:53.089Z,99022.60
2022-09-20T17:54:30.083Z,99023.40
2022-09-20T17:57:06.893Z,99024.80
2022-09-20T17:59:45.099Z,99026.00
2022-09-20T18:02:21.809Z,99030.00
2022-09-20T18:04:58.723Z,99031.00
2022-09-20T18:07:36.000Z,99037.00
2022-09-20T18:10:15.758Z,99046.00
2022-09-20T18:12:52.891Z,99046.60
2022-09-20T18:15:30.063Z,99044.00
2022-09-20T18:18:07.144Z,99047.00
2022-09-20T18:20:44.802Z,99046.00
2022-09-20T18:23:22.843Z,99047.80
2022-09-20T18:26:25.003Z,99053.00
2022-09-20T18:29:09.644Z,99045.20
2022-09-20T18:31:52.217Z,99053.00
2022-09-20T18:34:32.711Z,99057.20
2022-09-20T18:37:13.949Z,99059.00
2022-09-20T18:39:51.463Z,99064.00
2022-09-20T18:42:31.087Z,99065.60
2022-09-20T18:45:11.650Z,99071.20
2022-09-20T18:47:49.570Z,99079.00
2022-09-20T18:50:28.245Z,99081.00
2022-09-20T18:53:07.115Z,99078.60
2022-09-20T18:55:46.605Z,99085.00
2022-09-20T18:58:27.181Z,99092.20
2022-09-20T19:01:47.496Z,99095.20
2022-09-20T19:05:28.315Z,99090.80
2022-09-20T19:08:34.341Z,99090.20
2022-09-20T19:11:28.185Z,99088.60
2022-09-20T19:14:17.052Z,99091.00
2022-09-20T19:17:01.779Z,99089.60
2022-09-20T19:19:55.205Z,99093.80
2022-09-20T19:22:58.307Z,99092.60
2022-09-20T19:25:45.372Z,99098.20
2022-09-20T19:28:23.711Z,99095.80
2022-09-20T19:31:02.511Z,99095.00
2022-09-20T19:33:41.292Z,99100.80
2022-09-20T19:36:23.052Z,99099.80
2022-09-20T19:39:17.103Z,99097.80
2022-09-20T19:42:03.147Z,99097.20
2022-09-20T19:44:56.967Z,99098.80
2022-09-20T19:47:48.564Z,99097.20
2022-09-20T19:50:41.161Z,99100.20
2022-09-20T19:53:22.512Z,99104.80
2022-09-20T19:56:07.221Z,99100.40
2022-09-20T19:58:46.706Z,99101.60
2022-09-20T20:01:27.247Z,99104.40
2022-09-20T20:04:06.929Z,99108.00
2022-09-20T20:06:58.499Z,99109.80
2022-09-20T20:09:52.307Z,99110.80
2022-09-20T20:12:42.540Z,99110.80
2022-09-20T20:15:45.753Z,99114.40
2022-09-20T20:18:37.406Z,99111.60
2022-09-20T20:21:24.281Z,99115.20
2022-09-20T20:24:26.897Z,99111.80
2022-09-20T20:27:03.416Z,99113.00
2022-09-20T20:29:39.963Z,99113.40
2022-09-20T20:32:17.261Z,99117.20
2022-09-20T20:34:53.834Z,99118.40
2022-09-20T20:37:32.528Z,99120.00
2022-09-20T20:40:15.028Z,99121.80
2022-09-20T20:42:57.181Z,99119.20
2022-09-20T20:45:31.757Z,99125.00
2022-09-20T20:48:08.593Z,99124.00
2022-09-20T20:50:44.799Z,99128.80
2022-09-20T20:53:21.047Z,99125.40
2022-09-20T20:56:12.252Z,99127.80
2022-09-20T20:58:50.886Z,99126.20
2022-09-20T21:01:31.513Z,99128.20
2022-09-20T21:04:09.991Z,99126.60
2022-09-20T21:06:46.715Z,99123.60
2022-09-20T21:09:22.972Z,99124.40
2022-09-20T21:11:59.175Z,99122.20
2022-09-20T21:14:35.823Z,99118.80
2022-09-20T21:17:12.167Z,99118.20
2022-09-20T21:19:48.396Z,99116.40
2022-09-20T21:22:25.165Z,99116.80
2022-09-20T21:25:01.387Z,99118.60
2022-09-20T21:27:37.659Z,99117.00
2022-09-20T21:30:16.718Z,99113.60
2022-09-20T21:32:56.983Z,99112.20
2022-09-20T21:35:33.135Z,99116.20
2022-09-20T21:38:09.275Z,99123.20
2022-09-20T21:40:45.619Z,99128.80
2022-09-20T21:43:22.105Z,99129.20
2022-09-20T21:45:58.985Z,99129.00
2022-09-20T21:48:35.642Z,99127.40
2022-09-20T21:51:14.666Z,99125.60
2022-09-20T21:53:54.125Z,99128.20
2022-09-20T21:56:33.295Z,99126.80
2022-09-20T21:59:10.104Z,99128.80
2022-09-20T22:01:46.722Z,99131.20
2022-09-20T22:04:23.353Z,99129.00
2022-09-20T22:07:00.017Z,99128.60
2022-09-20T22:09:36.588Z,99129.00
2022-09-20T22:12:13.125Z,99131.00
2022-09-20T22:14:49.344Z,99139.20
2022-09-20T22:17:27.212Z,99137.80
2022-09-20T22:20:04.303Z,99136.60
2022-09-20T22:22:40.848Z,99138.80
2022-09-20T22:25:18.100Z,99138.20
2022-09-20T22:27:54.703Z,99138.20
2022-09-20T22:30:31.147Z,99138.80
2022-09-20T22:33:07.880Z,99140.20
2022-09-20T22:35:48.253Z,99139.20
2022-09-20T22:38:24.696Z,99138.80
2022-09-20T22:41:02.713Z,99135.80
2022-09-20T22:43:40.002Z,99135.20
2022-09-20T22:46:19.781Z,99133.60
2022-09-20T22:48:56.387Z,99134.60
2022-09-20T22:51:35.847Z,99133.80
2022-09-20T22:54:15.500Z,99136.40
2022-09-20T22:56:51.988Z,99134.20
2022-09-20T22:59:28.398Z,99132.20
2022-09-20T23:02:04.900Z,99132.80
2022-09-20T23:04:42.451Z,99132.60
2022-09-20T23:07:19.698Z,99133.00
2022-09-20T23:09:56.371Z,99133.80
2022-09-20T23:12:32.615Z,99134.60
2022-09-20T23:15:12.004Z,99134.20
2022-09-20T23:17:48.413Z,99135.60
2022-09-20T23:20:24.994Z,99133.40
2022-09-20T23:23:01.155Z,99135.60
2022-09-20T23:25:37.412Z,99137.00
2022-09-20T23:28:13.879Z,99134.60
2022-09-20T23:30:50.092Z,99141.80
2022-09-20T23:33:26.407Z,99144.00
2022-09-20T23:36:06.823Z,99150.00
2022-09-20T23:38:43.444Z,99147.20
2022-09-20T23:41:22.611Z,99150.60
2022-09-20T23:43:59.439Z,99151.40
2022-09-20T23:46:36.009Z,99146.40
2022-09-20T23:49:12.177Z,99150.40
2022-09-20T23:51:48.434Z,99146.80
2022-09-20T23:54:24.608Z,99147.00
2022-09-20T23:57:01.377Z,99149.60
2022-09-20T23:59:38.240Z,99151.80
